Terminal Aerodrome Forecast
Issued by NWS

Home | Current Version | Previous Version | Text Only | Print | Product List | Glossary Off
Versions: 1 2 3 4 5 6 7 8 9 10 11 12 13 14

825
FTUS43 KFGF 231120
TAFBJI
TAF
KBJI 231120Z 2312/2412 29013KT P6SM BKN020
     FM231600 30015KT P6SM VCSH BKN035
     FM231800 29016KT P6SM BKN035
     FM240200 30009KT P6SM BKN060
     FM240300 30009KT P6SM SCT060
     FM241100 30007KT P6SM BKN030=

USA.gov is the U.S. government's official web portal to all federal, state and local government web resources and services.